Time;durP1;ratioP1;P1;durP2;ratioP2;P2;SDS_P1;SDS_P2;PMS_P1;PMS_P2;Temp;Humidity;BMP_temperature;BMP_pressure;BME280_temperature;BME280_humidity;BME280_pressure;Samples;Min_cycle;Max_cycle;Signal;HPM_P1;HPM_P2
2021/04/24 00:00:32;;;;;;;8.50;7.53;;;5.60;98.60;;;6.43;60.94;98629.28;5187379;28;20211;-61
2021/04/24 00:03:06;;;;;;;9.83;7.87;;;5.40;98.90;;;6.30;60.90;98629.88;5190670;28;20199;-61
2021/04/24 00:05:41;;;;;;;10.93;7.47;;;5.30;98.90;;;6.23;60.91;98623.38;5187945;28;20221;-61
2021/04/24 00:08:16;;;;;;;10.87;7.67;;;5.30;98.80;;;6.25;60.92;98632.03;5184398;28;20214;-61
2021/04/24 00:10:49;;;;;;;7.13;6.40;;;5.30;99.20;;;6.19;61.19;98623.88;5187977;28;20263;-61
2021/04/24 00:13:21;;;;;;;8.17;7.37;;;5.30;99.20;;;6.17;61.23;98625.38;5187744;28;20669;-61
2021/04/24 00:15:53;;;;;;;9.03;7.10;;;5.20;99.20;;;6.12;61.60;98630.81;5187693;28;20225;-61
2021/04/24 00:18:25;;;;;;;7.70;7.00;;;5.10;99.30;;;6.13;61.64;98630.97;5185587;28;20231;-61
2021/04/24 00:20:57;;;;;;;9.13;7.67;;;5.10;99.50;;;6.13;61.02;98619.94;5186600;28;20197;-61
2021/04/24 00:23:29;;;;;;;8.40;7.50;;;5.10;99.10;;;6.05;61.92;98621.78;5185571;28;20737;-61
2021/04/24 00:26:03;;;;;;;9.93;8.17;;;5.00;99.70;;;6.00;61.83;98625.56;5187234;28;20202;-61
2021/04/24 00:28:35;;;;;;;9.47;7.47;;;5.00;99.70;;;5.98;61.84;98620.38;5186696;28;20309;-61
2021/04/24 00:31:07;;;;;;;9.80;7.60;;;5.00;99.60;;;5.96;61.87;98631.16;5186709;28;20248;-61
2021/04/24 00:33:39;;;;;;;7.97;7.17;;;5.00;99.80;;;5.84;61.96;98621.69;5182122;28;20228;-62
2021/04/24 00:36:13;;;;;;;10.00;8.10;;;4.90;99.70;;;5.83;62.19;98614.81;5186228;28;20245;-61
2021/04/24 00:38:45;;;;;;;9.77;8.50;;;4.90;99.70;;;5.84;62.33;98611.53;5185099;28;20281;-61
2021/04/24 00:41:18;;;;;;;9.97;8.00;;;4.90;99.80;;;5.81;62.53;98611.28;5186463;28;20228;-61
2021/04/24 00:43:50;;;;;;;9.60;7.90;;;4.80;99.90;;;5.76;62.75;98609.97;5187019;28;20693;-61
2021/04/24 00:46:23;;;;;;;9.50;7.17;;;4.80;99.90;;;5.77;62.65;98600.72;5186493;28;20226;-61
2021/04/24 00:48:55;;;;;;;9.30;6.97;;;4.80;99.90;;;5.74;62.32;98603.88;5185424;28;20644;-61
2021/04/24 00:51:31;;;;;;;8.80;7.90;;;4.70;99.90;;;5.65;62.52;98598.88;5186131;28;20225;-61
2021/04/24 00:54:04;;;;;;;9.07;7.33;;;4.50;99.90;;;5.53;62.73;98596.91;5186100;28;20577;-63
2021/04/24 00:56:37;;;;;;;8.17;7.37;;;4.50;99.90;;;5.42;62.67;98594.31;5186323;28;20725;-61
2021/04/24 00:59:09;;;;;;;9.97;6.97;;;4.40;99.90;;;5.35;63.21;98602.16;5186317;28;20221;-61
2021/04/24 01:01:42;;;;;;;9.47;7.53;;;4.40;99.90;;;5.43;62.76;98585.94;5185763;28;20206;-63
2021/04/24 01:04:14;;;;;;;8.43;7.63;;;4.50;99.90;;;5.36;63.12;98588.72;5185961;28;20567;-61
2021/04/24 01:06:46;;;;;;;9.30;8.10;;;4.40;99.90;;;5.30;63.15;98583.09;5184996;28;20198;-61
2021/04/24 01:09:18;;;;;;;8.97;8.00;;;4.40;99.90;;;5.23;63.50;98583.28;5179732;28;20223;-63
2021/04/24 01:11:51;;;;;;;8.50;7.40;;;4.30;99.90;;;5.22;63.67;98583.16;5183397;28;20229;-61
2021/04/24 01:14:23;;;;;;;9.03;8.13;;;4.30;99.90;;;5.25;64.08;98586.84;5186315;28;20666;-61
2021/04/24 01:16:56;;;;;;;8.83;7.93;;;4.20;99.90;;;5.19;63.83;98584.66;5186629;28;20209;-61
2021/04/24 01:19:28;;;;;;;10.10;8.53;;;4.20;99.90;;;5.25;63.92;98574.19;5184422;28;20234;-61
2021/04/24 01:22:06;;;;;;;9.60;8.13;;;4.30;99.90;;;5.21;64.15;98582.28;5183818;28;20206;-61
2021/04/24 01:24:39;;;;;;;10.23;8.20;;;4.30;99.90;;;4.93;64.01;98581.44;5185500;28;21511;-61
2021/04/24 01:27:11;;;;;;;9.77;8.47;;;4.00;99.90;;;4.78;64.62;98578.44;5186126;28;20601;-63
2021/04/24 01:29:46;;;;;;;10.20;8.40;;;3.90;99.90;;;4.81;64.66;98576.16;5185069;28;20639;-63
2021/04/24 01:32:18;;;;;;;8.83;7.97;;;3.90;99.90;;;4.84;65.72;98583.16;5183691;28;20200;-62
2021/04/24 01:34:51;;;;;;;10.83;8.93;;;4.00;99.90;;;4.91;65.38;98575.34;5186161;28;20689;-62
2021/04/24 01:37:24;;;;;;;9.63;8.50;;;4.00;99.90;;;4.82;64.82;98570.34;5179126;28;20208;-62
2021/04/24 01:39:56;;;;;;;9.33;8.33;;;4.00;99.90;;;4.85;64.91;98573.16;5185379;28;20222;-62
2021/04/24 01:42:28;;;;;;;11.27;8.37;;;4.00;99.90;;;4.91;64.92;98566.09;5176028;28;20200;-62
2021/04/24 01:45:01;;;;;;;10.87;9.13;;;4.00;99.90;;;4.96;65.34;98564.88;5185879;28;20240;-62
2021/04/24 01:47:33;;;;;;;10.80;9.37;;;4.00;99.90;;;4.89;65.17;98567.63;5173111;28;20225;-62
2021/04/24 01:50:06;;;;;;;11.37;9.63;;;4.00;99.90;;;4.93;64.90;98561.19;5184333;28;20286;-62
2021/04/24 01:52:42;;;;;;;13.43;10.83;;;4.00;99.90;;;4.89;65.18;98564.19;5180953;28;20208;-62
2021/04/24 01:55:17;;;;;;;14.80;11.63;;;4.00;99.90;;;4.88;65.19;98568.34;5185787;28;20292;-62
2021/04/24 01:57:52;;;;;;;14.37;11.57;;;3.90;99.90;;;4.84;65.24;98567.97;5185371;28;20662;-62
2021/04/24 02:00:27;;;;;;;12.83;10.97;;;3.80;99.90;;;4.78;64.90;98568.28;5185670;28;20281;-63
2021/04/24 02:03:03;;;;;;;12.80;10.00;;;3.80;99.90;;;4.81;65.16;98571.09;5183327;28;20217;-63
2021/04/24 02:05:35;;;;;;;11.17;8.27;;;3.80;99.90;;;4.74;65.52;98561.16;5183358;28;20213;-63
2021/04/24 02:08:10;;;;;;;9.70;8.00;;;3.80;99.90;;;4.66;65.52;98562.97;5179858;28;20202;-62
2021/04/24 02:10:46;;;;;;;10.93;8.67;;;3.70;99.90;;;4.61;66.15;98569.28;5185206;28;20224;-61
2021/04/24 02:13:21;;;;;;;11.27;9.20;;;3.70;99.90;;;4.60;65.83;98569.13;5185754;28;20297;-61
2021/04/24 02:15:53;;;;;;;10.27;9.27;;;3.60;99.90;;;4.56;66.15;98572.16;5184942;28;20190;-63
2021/04/24 02:18:26;;;;;;;12.33;10.17;;;3.60;99.90;;;4.59;65.76;98560.66;5184028;28;20222;-63
2021/04/24 02:20:58;;;;;;;10.60;9.27;;;3.60;99.90;;;4.58;66.64;98568.09;5182843;28;20200;-63
2021/04/24 02:23:35;;;;;;;12.47;9.90;;;3.60;99.90;;;4.55;66.56;98566.22;5183956;28;20208;-61
2021/04/24 02:26:09;;;;;;;16.87;12.20;;;3.60;99.90;;;4.53;66.21;98562.63;5180595;28;20541;-63
2021/04/24 02:28:41;;;;;;;12.60;11.03;;;3.60;99.90;;;4.43;66.27;98565.06;5184662;28;20246;-63
2021/04/24 02:31:13;;;;;;;12.67;11.33;;;3.50;99.90;;;4.47;66.07;98570.56;5184914;28;20227;-63
2021/04/24 02:33:45;;;;;;;14.00;10.50;;;3.40;99.90;;;4.46;65.90;98563.72;5183433;28;20203;-63
2021/04/24 02:36:18;;;;;;;12.33;10.83;;;3.40;99.90;;;4.36;65.74;98556.03;5183222;28;20690;-63
2021/04/24 02:38:53;;;;;;;12.87;8.47;;;3.40;99.90;;;4.23;66.57;98558.16;5182973;28;20223;-63
2021/04/24 02:41:25;;;;;;;11.43;8.87;;;3.20;99.90;;;4.21;66.52;98562.22;5184915;28;20654;-63
2021/04/24 02:43:57;;;;;;;9.70;7.93;;;3.20;99.90;;;4.06;66.67;98560.03;5185111;28;20697;-63
2021/04/24 02:46:29;;;;;;;9.67;8.67;;;3.10;99.90;;;4.03;67.10;98554.69;5183905;28;20203;-63
2021/04/24 02:49:02;;;;;;;12.33;9.13;;;3.10;99.90;;;4.00;66.85;98559.44;5183896;28;20284;-63
2021/04/24 02:51:34;;;;;;;18.83;14.47;;;3.00;99.90;;;4.11;66.49;98568.03;5182743;28;20226;-60
2021/04/24 02:54:08;;;;;;;10.90;9.33;;;3.00;99.90;;;3.94;66.63;98563.03;5183699;28;20210;-61
2021/04/24 02:56:40;;;;;;;11.37;8.37;;;2.80;99.90;;;3.75;68.62;98565.47;5184927;28;20583;-63
2021/04/24 02:59:13;;;;;;;8.80;7.90;;;2.70;99.90;;;3.62;68.61;98563.44;5184089;28;20246;-61
2021/04/24 03:01:46;;;;;;;10.07;8.30;;;2.70;99.90;;;3.67;68.58;98566.41;5182318;28;20213;-63
2021/04/24 03:04:18;;;;;;;8.97;8.07;;;2.70;99.90;;;3.68;68.29;98558.94;5185934;28;20206;-61
2021/04/24 03:06:51;;;;;;;11.10;9.30;;;2.70;99.90;;;3.71;68.72;98560.88;5183265;28;20318;-63
2021/04/24 03:09:24;;;;;;;12.50;10.77;;;2.80;99.90;;;3.68;68.26;98561.47;5184243;28;20685;-63
2021/04/24 03:11:56;;;;;;;13.13;11.77;;;2.80;99.90;;;3.69;68.89;98562.34;5184663;28;20218;-61
2021/04/24 03:14:28;;;;;;;12.37;11.07;;;2.70;99.90;;;3.60;68.81;98560.72;5184242;28;20205;-63
2021/04/24 03:17:00;;;;;;;12.83;11.03;;;2.70;99.90;;;3.65;68.27;98560.31;5184614;28;20210;-63
2021/04/24 03:19:32;;;;;;;12.40;11.10;;;2.80;99.90;;;3.59;68.20;98555.56;5184222;28;20242;-63
2021/04/24 03:22:04;;;;;;;12.57;10.97;;;2.80;99.90;;;3.62;68.29;98550.78;5186060;28;20202;-63
2021/04/24 03:24:37;;;;;;;11.23;9.53;;;2.80;99.90;;;3.58;69.62;98561.38;5188368;28;20207;-63
2021/04/24 03:27:09;;;;;;;12.30;9.47;;;2.70;99.90;;;3.63;69.10;98552.56;5188696;28;20305;-63
2021/04/24 03:29:41;;;;;;;10.30;8.87;;;2.80;99.90;;;3.64;69.28;98546.78;5234605;22;20235;-55
2021/04/24 03:32:13;;;;;;;9.40;8.23;;;2.80;99.90;;;3.63;69.74;98544.97;5240336;28;20231;-54
2021/04/24 03:34:45;;;;;;;11.83;9.37;;;2.80;99.90;;;3.64;69.79;98549.31;5248797;28;20204;-57
2021/04/24 03:37:17;;;;;;;11.37;8.73;;;2.80;99.90;;;3.68;69.99;98555.53;5247286;28;20196;-55
2021/04/24 03:39:50;;;;;;;10.83;9.43;;;2.80;99.90;;;3.74;68.55;98554.47;5249858;28;20226;-53
2021/04/24 03:42:22;;;;;;;10.73;9.03;;;2.90;99.90;;;3.58;69.40;98552.13;5230939;28;20193;-57
2021/04/24 03:44:54;;;;;;;10.47;9.37;;;2.80;99.90;;;3.49;70.07;98555.41;5244793;28;20221;-55
2021/04/24 03:47:26;;;;;;;12.17;10.27;;;2.70;99.90;;;3.52;69.89;98555.69;5240631;28;20204;-56
2021/04/24 03:49:58;;;;;;;12.90;10.13;;;2.70;99.90;;;3.57;69.17;98555.38;5248769;28;20227;-56
2021/04/24 03:52:30;;;;;;;12.07;9.27;;;2.80;99.90;;;3.55;69.54;98551.84;5246619;28;20217;-58
2021/04/24 03:55:04;;;;;;;12.10;9.40;;;2.80;99.90;;;3.67;69.04;98556.28;5239528;28;20201;-53
2021/04/24 03:57:36;;;;;;;10.70;9.60;;;2.80;99.90;;;3.60;69.69;98552.28;5237556;28;20196;-58
2021/04/24 04:00:10;;;;;;;10.30;8.87;;;2.80;99.90;;;3.60;69.17;98554.78;5246542;28;20259;-57
2021/04/24 04:02:50;;;;;;;10.13;9.07;;;2.80;99.90;;;3.62;69.68;98555.84;5246761;28;20207;-55
2021/04/24 04:05:25;;;;;;;10.43;9.10;;;2.80;99.90;;;3.61;69.79;98557.47;5245817;28;20203;-57
2021/04/24 04:07:58;;;;;;;10.33;9.33;;;2.70;99.90;;;3.63;69.82;98554.19;5233293;28;20200;-53
2021/04/24 04:10:33;;;;;;;12.97;10.13;;;2.80;99.90;;;3.63;69.70;98560.13;5240402;28;20227;-53
2021/04/24 04:13:07;;;;;;;12.33;10.13;;;2.80;99.90;;;3.60;69.23;98557.31;5241630;28;20188;-55
2021/04/24 04:15:39;;;;;;;11.70;9.83;;;2.80;99.90;;;3.61;70.01;98554.97;5246179;28;20208;-53
2021/04/24 04:18:14;;;;;;;10.83;9.73;;;2.80;99.90;;;3.52;69.00;98561.66;5249478;28;20203;-57
2021/04/24 04:20:49;;;;;;;11.10;8.90;;;2.70;99.90;;;3.48;69.59;98561.22;5246469;28;20211;-54
2021/04/24 04:23:26;;;;;;;9.83;8.83;;;2.70;99.90;;;3.45;69.17;98554.22;5247845;28;20656;-55
2021/04/24 04:26:00;;;;;;;10.73;8.63;;;2.60;99.90;;;3.51;69.93;98562.41;5235518;28;20204;-55
2021/04/24 04:28:32;;;;;;;9.80;8.70;;;2.70;99.90;;;3.52;69.57;98564.19;5248981;28;20294;-53
2021/04/24 04:31:04;;;;;;;9.37;8.50;;;2.70;99.90;;;3.58;69.46;98566.41;5246941;28;20220;-54
2021/04/24 04:33:36;;;;;;;10.40;9.13;;;2.70;99.90;;;3.61;69.83;98570.13;5247015;28;20675;-52
2021/04/24 04:36:08;;;;;;;11.20;9.23;;;2.70;99.90;;;3.69;69.36;98563.28;5246657;28;20211;-53
2021/04/24 04:38:40;;;;;;;9.93;8.80;;;2.80;99.90;;;3.74;69.05;98573.81;5246245;28;20216;-57
2021/04/24 04:41:13;;;;;;;11.30;10.10;;;2.80;99.90;;;3.72;68.81;98568.63;5234954;28;20208;-53
2021/04/24 04:43:45;;;;;;;10.83;9.43;;;2.80;99.90;;;3.82;69.42;98577.94;5242037;28;20193;-53
2021/04/24 04:46:17;;;;;;;11.13;9.07;;;2.90;99.90;;;3.84;68.71;98581.53;5244731;28;20207;-53
2021/04/24 04:48:50;;;;;;;11.67;8.90;;;3.00;99.90;;;3.75;68.52;98583.16;5232921;28;20209;-56
2021/04/24 04:51:22;;;;;;;10.90;9.30;;;2.90;99.90;;;3.84;68.03;98579.00;5247173;28;20227;-55
2021/04/24 04:53:54;;;;;;;10.30;9.17;;;2.90;99.90;;;3.87;68.67;98581.81;5246895;28;20207;-59
2021/04/24 04:56:27;;;;;;;12.97;9.37;;;2.90;99.90;;;3.91;69.15;98583.88;5245156;28;20197;-57
2021/04/24 04:58:59;;;;;;;10.43;9.03;;;3.00;99.90;;;3.96;68.06;98580.13;5245246;28;20209;-59
2021/04/24 05:01:31;;;;;;;9.53;8.57;;;2.90;99.90;;;3.98;67.50;98576.13;5243784;28;20203;-58
2021/04/24 05:04:04;;;;;;;11.60;8.70;;;2.90;99.90;;;4.04;67.73;98574.16;5246229;28;20205;-56
2021/04/24 05:06:36;;;;;;;11.40;9.20;;;3.00;99.90;;;4.03;67.49;98579.97;5245669;28;20203;-56
2021/04/24 05:09:08;;;;;;;10.20;8.40;;;2.90;99.90;;;4.04;68.11;98578.34;5246035;28;20227;-58
2021/04/24 05:11:41;;;;;;;10.57;8.93;;;3.00;99.90;;;4.01;67.87;98573.88;5247720;28;20223;-57
2021/04/24 05:14:13;;;;;;;10.90;9.17;;;3.00;99.90;;;4.16;68.07;98576.94;5241995;28;20286;-58
2021/04/24 05:16:45;;;;;;;10.97;8.47;;;3.10;99.90;;;4.20;67.63;98581.53;5242534;28;20198;-60
2021/04/24 05:19:17;;;;;;;10.67;9.50;;;3.20;99.90;;;4.36;67.28;98581.31;5245829;28;20274;-57
2021/04/24 05:21:49;;;;;;;9.93;8.30;;;3.30;99.90;;;4.54;67.29;98576.16;5240715;28;20199;-60
2021/04/24 05:24:22;;;;;;;10.17;8.70;;;3.40;99.90;;;4.79;66.22;98580.19;5240447;28;20208;-58
2021/04/24 05:26:55;;;;;;;11.07;8.37;;;3.60;99.90;;;5.13;64.64;98580.72;5247585;28;20555;-60
2021/04/24 05:29:28;;;;;;;11.80;8.30;;;3.90;99.90;;;5.40;63.99;98573.00;5246617;28;20732;-60
2021/04/24 05:31:59;;;;;;;8.73;7.83;;;4.10;99.90;;;5.62;63.14;98577.44;5242999;28;20228;-58
2021/04/24 05:34:32;;;;;;;9.13;8.23;;;4.20;99.90;;;6.01;60.54;98576.59;5239579;28;20196;-59
2021/04/24 05:37:04;;;;;;;9.67;7.73;;;4.60;99.90;;;6.31;61.27;98586.84;5242484;28;20192;-56
2021/04/24 05:39:37;;;;;;;9.67;8.80;;;4.90;99.90;;;6.82;59.68;98577.53;5240123;28;20243;-59
2021/04/24 05:42:11;;;;;;;11.00;8.67;;;5.30;99.90;;;7.44;58.47;98579.25;5246130;28;20211;-57
2021/04/24 05:44:43;;;;;;;10.20;9.10;;;5.80;99.90;;;7.80;56.09;98578.72;5238073;28;20197;-61
2021/04/24 05:47:15;;;;;;;11.13;8.63;;;6.20;99.40;;;8.41;55.33;98569.03;5242487;28;20201;-59
2021/04/24 05:49:47;;;;;;;9.90;8.47;;;6.50;98.90;;;8.84;53.62;98580.81;5244143;28;20703;-59
2021/04/24 05:52:19;;;;;;;10.43;9.00;;;6.90;98.10;;;9.31;52.39;98577.50;5241075;28;20226;-59
2021/04/24 05:54:51;;;;;;;9.43;8.20;;;7.10;97.50;;;9.66;50.81;98577.50;5232744;28;20571;-59
2021/04/24 05:57:24;;;;;;;9.47;8.40;;;7.30;96.70;;;9.78;49.96;98583.47;5236069;28;20200;-61
2021/04/24 05:59:56;;;;;;;12.07;8.67;;;7.30;96.50;;;9.98;49.40;98584.00;5246038;28;20227;-59
2021/04/24 06:02:28;;;;;;;10.23;8.30;;;7.60;96.20;;;10.12;50.05;98586.75;5243079;28;20210;-59
2021/04/24 06:05:02;;;;;;;12.87;9.00;;;7.70;96.00;;;10.48;48.07;98586.72;5237541;28;20196;-60
2021/04/24 06:07:34;;;;;;;10.67;8.47;;;8.00;95.20;;;10.70;47.58;98584.84;5231802;28;20197;-62
2021/04/24 06:10:11;;;;;;;10.37;9.37;;;7.80;95.30;;;11.10;47.11;98582.41;5230373;28;20780;-59
2021/04/24 06:12:45;;;;;;;11.40;10.20;;;8.20;95.40;;;11.41;46.12;98584.41;5243408;28;20303;-60
2021/04/24 06:15:20;;;;;;;11.97;10.77;;;8.50;94.60;;;11.72;45.64;98580.50;5236831;28;20196;-59
2021/04/24 06:17:52;;;;;;;10.43;9.43;;;8.70;94.20;;;11.84;45.04;98577.81;5231797;28;20282;-58
2021/04/24 06:20:24;;;;;;;10.93;9.23;;;8.80;93.80;;;12.15;44.35;98580.69;5243899;28;20212;-59
2021/04/24 06:22:56;;;;;;;11.00;9.07;;;9.10;93.50;;;12.18;44.30;98586.00;5237550;28;20212;-60
2021/04/24 06:25:28;;;;;;;11.55;9.80;;;9.40;92.70;;;12.25;44.00;98576.16;5226029;28;20239;-62
2021/04/24 06:28:01;;;;;;;10.57;9.48;;;9.60;92.30;;;12.69;42.93;98576.28;5236573;28;20205;-60
2021/04/24 06:30:33;;;;;;;10.98;8.85;;;9.80;92.20;;;13.20;42.48;98562.19;5233631;28;20229;-60
2021/04/24 06:33:06;;;;;;;10.98;9.88;;;10.20;91.60;;;13.39;42.07;98566.75;5232935;28;20189;-62
2021/04/24 06:35:38;;;;;;;10.07;9.07;;;10.60;91.00;;;13.71;40.71;98563.44;5233429;28;20472;-61
2021/04/24 06:38:10;;;;;;;11.60;9.30;;;11.00;90.00;;;13.41;40.45;98560.00;5235990;28;20219;-62
2021/04/24 06:40:42;;;;;;;10.63;9.27;;;10.60;90.10;;;14.00;40.38;98560.72;5225747;28;20225;-62
2021/04/24 06:43:14;;;;;;;11.65;9.50;;;11.20;88.80;;;14.40;39.61;98556.91;5234935;28;20220;-62
2021/04/24 06:45:46;;;;;;;11.70;8.95;;;11.50;88.80;;;14.53;39.25;98550.75;5229046;28;20200;-62
2021/04/24 06:48:18;;;;;;;9.95;8.95;;;11.80;86.90;;;15.03;37.99;98549.03;5231894;28;20197;-62
2021/04/24 06:50:51;;;;;;;10.93;9.02;;;12.00;85.50;;;15.11;37.65;98545.16;5242609;28;20197;-61
2021/04/24 06:53:25;;;;;;;10.38;8.93;;;12.10;84.60;;;14.54;37.60;98538.81;5241250;28;20192;-62
2021/04/24 06:55:57;;;;;;;10.63;9.25;;;12.10;83.50;;;14.49;38.62;98543.66;5230380;28;20199;-59
2021/04/24 06:58:30;;;;;;;10.32;9.23;;;11.90;84.80;;;14.95;37.31;98546.06;5225027;28;20205;-61
2021/04/24 07:01:02;;;;;;;10.52;8.50;;;12.20;83.00;;;15.28;37.25;98545.97;5228740;28;20683;-61
2021/04/24 07:03:35;;;;;;;10.25;8.88;;;12.60;83.00;;;15.63;36.70;98541.69;5225674;28;20197;-57
2021/04/24 07:06:07;;;;;;;10.02;8.63;;;13.00;82.00;;;15.73;36.30;98547.38;5225443;28;20204;-61
2021/04/24 07:08:39;;;;;;;9.73;8.73;;;13.30;80.20;;;16.05;35.98;98547.13;5227983;28;20225;-61
2021/04/24 07:11:11;;;;;;;10.18;8.07;;;13.30;80.20;;;16.08;36.40;98545.59;5244771;28;20564;-63
2021/04/24 07:13:44;;;;;;;10.93;8.48;;;13.40;80.90;;;16.37;34.89;98548.63;5241866;28;20201;-63
2021/04/24 07:16:16;;;;;;;8.52;7.63;;;13.40;79.50;;;16.72;35.65;98542.44;5243323;28;20235;-63
2021/04/24 07:18:48;;;;;;;9.27;7.47;;;13.50;81.20;;;17.02;34.10;98544.63;5242921;28;20692;-62
2021/04/24 07:21:21;;;;;;;8.85;8.00;;;13.90;78.90;;;17.24;34.61;98543.81;5230801;28;20656;-63
2021/04/24 07:23:53;;;;;;;8.68;7.80;;;14.20;78.80;;;17.94;33.14;98544.13;5229161;28;20204;-61
2021/04/24 07:26:25;;;;;;;8.85;7.95;;;14.50;78.40;;;18.28;32.63;98527.28;5229341;28;20192;-63
2021/04/24 07:28:58;;;;;;;9.13;7.65;;;14.90;77.00;;;18.61;32.46;98531.97;5240769;28;20220;-63
2021/04/24 07:31:30;;;;;;;9.50;7.65;;;15.30;76.70;;;19.00;32.75;98536.81;5241619;28;20257;-63
2021/04/24 07:34:02;;;;;;;8.75;7.95;;;15.50;77.10;;;19.58;31.38;98537.06;5233152;28;20280;-63
2021/04/24 07:36:35;;;;;;;8.68;7.88;;;15.90;75.80;;;19.06;31.49;98537.91;5225407;28;20189;-63
2021/04/24 07:39:07;;;;;;;8.13;7.43;;;15.40;74.70;;;19.57;31.54;98535.31;5232669;28;20212;-63
2021/04/24 07:41:39;;;;;;;8.57;7.55;;;15.90;75.90;;;19.28;31.45;98528.25;5243993;28;20208;-63
2021/04/24 07:44:12;;;;;;;8.18;6.88;;;16.10;74.40;;;18.96;31.94;98528.03;5231331;28;20197;-60
2021/04/24 07:46:44;;;;;;;9.32;7.95;;;16.00;74.40;;;18.50;33.20;98525.50;5225762;28;20197;-61
2021/04/24 07:49:16;;;;;;;8.25;7.40;;;15.80;75.80;;;18.53;33.87;98523.91;5225323;28;20775;-62
2021/04/24 07:51:48;;;;;;;9.27;7.03;;;16.20;76.20;;;18.76;33.19;98521.28;5228489;28;20593;-59
2021/04/24 07:54:20;;;;;;;8.07;6.88;;;16.30;74.00;;;18.82;32.75;98521.50;5244509;28;20698;-62
2021/04/24 07:56:52;;;;;;;9.93;7.28;;;16.70;73.00;;;19.01;32.00;98518.72;5238161;28;20197;-61
2021/04/24 07:59:25;;;;;;;8.43;7.38;;;17.10;71.20;;;18.83;31.29;98521.56;5237249;28;20224;-63
2021/04/24 08:02:00;;;;;;;7.47;6.65;;;17.10;67.90;;;19.23;30.37;98525.53;5234617;28;20193;-61
2021/04/24 08:04:33;;;;;;;8.07;7.28;;;17.30;67.40;;;19.26;29.13;98519.56;5240338;28;20203;-63
2021/04/24 08:07:07;;;;;;;9.05;6.85;;;17.30;66.00;;;19.06;29.35;98516.31;5243808;28;20192;-61
2021/04/24 08:09:39;;;;;;;7.57;6.78;;;17.20;64.70;;;19.12;28.45;98513.91;5239671;28;20224;-61
2021/04/24 08:12:11;;;;;;;8.02;6.57;;;17.50;62.90;;;18.98;29.30;98517.75;5245518;28;20217;-62
2021/04/24 08:14:44;;;;;;;8.38;6.70;;;17.40;64.40;;;18.90;29.66;98514.88;5263864;28;20202;-61
2021/04/24 08:17:16;;;;;;;7.22;6.30;;;17.30;64.70;;;19.12;28.45;98516.50;5240766;28;20201;-61
2021/04/24 08:19:48;;;;;;;7.10;6.40;;;17.40;63.10;;;19.41;26.87;98509.69;5240909;28;20224;-61
2021/04/24 08:22:20;;;;;;;10.80;6.78;;;17.70;59.40;;;19.50;26.95;98519.47;5246517;28;20207;-62
2021/04/24 08:24:53;;;;;;;7.07;6.47;;;17.90;60.00;;;19.65;28.52;98514.81;5245738;28;20199;-61
2021/04/24 08:27:25;;;;;;;7.45;6.80;;;18.10;61.90;;;19.60;28.10;98516.34;5245725;28;20199;-61
2021/04/24 08:29:58;;;;;;;7.55;6.85;;;18.00;60.80;;;19.66;28.30;98508.81;5246868;28;20324;-61
2021/04/24 08:32:29;;;;;;;7.28;6.68;;;18.40;61.20;;;19.82;28.09;98504.09;5236783;28;20227;-62
2021/04/24 08:35:02;;;;;;;8.77;6.90;;;18.50;61.00;;;19.92;28.51;98503.56;5241436;28;20283;-60
2021/04/24 08:37:35;;;;;;;7.70;7.00;;;18.60;62.40;;;20.21;27.10;98502.69;5244196;28;20253;-62
2021/04/24 08:40:10;;;;;;;8.13;6.68;;;18.90;59.30;;;20.23;26.46;98506.22;5262615;28;20213;-61
2021/04/24 08:42:44;;;;;;;7.50;6.72;;;18.90;58.60;;;20.22;27.46;98494.06;5246179;28;20200;-61
2021/04/24 08:45:19;;;;;;;8.07;6.60;;;19.00;59.50;;;20.47;26.96;98499.97;5227023;28;20648;-62
2021/04/24 08:47:53;;;;;;;9.45;7.45;;;19.30;59.20;;;20.62;26.94;98490.03;5233533;28;20514;-60
2021/04/24 08:50:29;;;;;;;8.73;7.07;;;19.30;59.20;;;20.75;27.23;98495.59;5240861;28;20226;-62
2021/04/24 08:53:03;;;;;;;8.18;7.28;;;19.70;59.10;;;20.85;25.78;98493.25;5241744;28;20679;-61
2021/04/24 08:55:38;;;;;;;7.85;7.03;;;19.50;57.60;;;20.74;25.83;98493.78;5230194;28;20230;-62
2021/04/24 08:58:10;;;;;;;7.75;6.95;;;19.60;57.10;;;20.69;26.13;98497.16;5238312;28;20295;-62
2021/04/24 09:00:51;;;;;;;8.40;7.63;;;19.60;57.70;;;20.73;26.40;98492.06;5251788;28;20655;-60
2021/04/24 09:03:23;;;;;;;8.10;7.10;;;19.60;57.70;;;20.85;26.17;98487.16;5241881;28;20193;-62
2021/04/24 09:05:55;;;;;;;8.20;7.32;;;19.60;57.40;;;21.14;24.96;98486.19;5257308;28;20196;-60
2021/04/24 09:08:29;;;;;;;8.77;7.38;;;20.10;55.80;;;21.13;25.21;98479.25;5248027;28;20197;-61
2021/04/24 09:11:06;;;;;;;9.15;7.50;;;20.20;56.50;;;21.20;24.67;98484.59;5241828;28;20208;-61
2021/04/24 09:13:38;;;;;;;10.50;7.47;;;19.90;55.20;;;20.98;23.77;98478.88;5242057;28;20655;-62
2021/04/24 09:16:23;;;;;;;8.95;8.02;;;19.60;54.10;;;20.81;24.14;98475.81;5256772;28;20233;-62
2021/04/24 09:18:56;;;;;;;8.80;7.88;;;19.50;55.30;;;20.84;24.49;98477.63;5248351;28;20212;-60
2021/04/24 09:21:30;;;;;;;9.75;6.95;;;19.70;55.30;;;20.86;24.42;98473.31;5245960;28;20219;-62
2021/04/24 09:24:03;;;;;;;7.63;6.88;;;19.70;54.60;;;20.92;25.12;98470.91;5248819;28;20201;-61
2021/04/24 09:26:35;;;;;;;8.90;7.75;;;19.90;55.60;;;21.14;23.71;98473.19;5266176;28;20583;-61
2021/04/24 09:29:07;;;;;;;9.18;7.45;;;20.40;53.40;;;21.08;24.39;98470.44;5243375;28;20225;-62
2021/04/24 09:31:40;;;;;;;8.68;7.78;;;20.30;53.90;;;21.09;23.97;98466.16;5230601;22;20222;-63
2021/04/24 09:34:12;;;;;;;9.38;7.45;;;20.30;53.30;;;21.06;23.40;98469.56;5200573;28;20202;-62
2021/04/24 09:36:44;;;;;;;8.50;7.70;;;20.20;52.50;;;20.85;24.32;98461.19;5211524;28;20698;-62
2021/04/24 09:39:16;;;;;;;11.68;8.30;;;20.00;54.10;;;20.88;23.08;98462.13;5196819;28;20210;-63
2021/04/24 09:41:50;;;;;;;9.70;8.75;;;20.00;52.30;;;20.96;23.75;98464.94;5207246;28;20216;-62
2021/04/24 09:44:25;;;;;;;9.15;8.25;;;20.20;52.90;;;21.07;23.23;98458.31;5216009;28;20381;-63
2021/04/24 09:46:57;;;;;;;8.75;7.75;;;20.40;52.40;;;;;;5212130;28;20556;-63
2021/04/24 09:49:33;;;;;;;9.85;8.43;;;20.20;52.80;;;21.20;22.75;98459.47;5214825;28;20201;-64
2021/04/24 09:52:08;;;;;;;8.93;7.72;;;20.50;51.20;;;20.89;23.08;98452.66;5204997;28;20304;-63
2021/04/24 09:54:44;;;;;;;8.60;7.32;;;20.00;52.20;;;21.04;23.40;98447.81;5211059;28;20301;-63
2021/04/24 09:57:20;;;;;;;9.07;8.18;;;20.30;52.50;;;20.98;23.31;98447.69;5224800;28;20201;-62
2021/04/24 09:59:55;;;;;;;8.90;8.10;;;20.40;51.80;;;20.81;23.42;98439.44;5206870;28;20293;-64
2021/04/24 10:02:33;;;;;;;10.18;8.23;;;20.00;52.50;;;20.91;23.00;98435.34;5212855;28;20659;-64
2021/04/24 10:05:08;;;;;;;8.85;7.95;;;20.30;51.50;;;20.83;23.14;98436.88;5203965;28;20369;-63
2021/04/24 10:07:43;;;;;;;7.82;6.75;;;20.30;51.20;;;20.85;22.59;98435.19;5205380;28;20698;-63
2021/04/24 10:10:17;;;;;;;7.72;6.85;;;20.30;50.90;;;20.82;22.12;98419.53;5216510;28;20292;-63
2021/04/24 10:12:57;;;;;;;8.45;7.60;;;20.10;50.10;;;20.94;22.46;98419.84;5213865;28;20221;-63
2021/04/24 10:15:38;;;;;;;8.13;7.32;;;20.20;50.50;;;20.92;23.26;98426.72;5223847;28;20335;-63
2021/04/24 10:18:14;;;;;;;8.38;7.60;;;20.20;51.90;;;20.99;23.02;98412.16;5207619;28;20206;-63
2021/04/24 10:20:47;;;;;;;8.73;7.15;;;20.20;51.20;;;21.04;23.42;98408.84;5207660;28;20194;-64
2021/04/24 10:23:20;;;;;;;7.43;6.72;;;20.20;51.80;;;21.15;22.38;98409.97;5212642;28;20681;-63
2021/04/24 10:25:52;;;;;;;8.63;6.78;;;20.40;50.20;;;21.26;21.98;98406.72;5217378;28;20190;-63
2021/04/24 10:28:24;;;;;;;9.20;7.97;;;20.20;50.00;;;21.06;21.38;98399.38;5213472;28;20220;-63
2021/04/24 10:31:00;;;;;;;8.40;6.97;;;20.10;49.50;;;20.87;21.99;98394.53;5204776;28;20883;-63
2021/04/24 10:33:34;;;;;;;8.88;7.15;;;19.90;50.00;;;20.85;21.87;98401.41;5217979;28;20300;-63
2021/04/24 10:36:06;;;;;;;7.70;6.93;;;20.10;49.60;;;20.79;21.59;98398.66;5210079;28;20197;-63
2021/04/24 10:38:44;;;;;;;8.35;6.55;;;20.00;49.30;;;20.77;21.52;98402.94;5218974;28;20209;-63
2021/04/24 10:41:27;;;;;;;7.60;6.85;;;20.10;48.70;;;20.77;21.79;98400.34;5214486;28;20772;-63
2021/04/24 10:44:03;;;;;;;7.65;6.88;;;20.00;49.10;;;20.75;22.79;98391.66;5207700;28;20284;-62
2021/04/24 10:46:46;;;;;;;6.40;5.57;;;19.90;51.00;;;20.82;21.96;98388.34;5207594;28;20194;-63